Search for airport 
image banner adimage banner ad
image banner ad

SSZR - Santa Rosa Airport

Located in Santa Rosa, Brazil

ICAO - SSZR, IATA - SRA

Data provided by Airmate  

General information

Coordinates: S27°54'32" W54°31'20"
Elevation is 984 feet MSL.
Magnetic variation is -15° East
Rated:
View ratings: [VIEW]


View others Airports in Rio Grande do Sul

Operational data

Open for public use
Current time UTC:
Current local time:
Weather at : SBNM - Santo Ângelo Airport ( 54 km )
METAR: SBNM 031800Z AUTO 06007KT 020V100 CAVOK 25/13 Q1024
View NOTAMs / SUP AIP / TFR affecting this airport [VIEW]
Communications frequencies: [VIEW]

Runways:

RWY identifierQFULength (ft)Width (ft)SurfaceLDA (ft)
25393798ASP
07393798UNK

Airport contact information

Address: Santa Rosa Brazil

Satellite view of SSZR